createdAt,value
2022-10-24T00:01:22.965Z,51.80
2022-10-24T00:03:50.951Z,49.03
2022-10-24T00:06:20.004Z,47.65
2022-10-24T00:08:48.102Z,46.92
2022-10-24T00:11:28.230Z,49.55
2022-10-24T00:13:57.498Z,46.35
2022-10-24T00:16:25.415Z,51.28
2022-10-24T00:18:52.810Z,53.17
2022-10-24T00:21:21.390Z,43.22
2022-10-24T00:23:48.613Z,49.08
2022-10-24T00:26:16.802Z,48.28
2022-10-24T00:28:44.241Z,45.40
2022-10-24T00:31:19.512Z,42.60
2022-10-24T00:36:18.199Z,36.70
2022-10-24T00:38:45.793Z,41.83
2022-10-24T00:41:26.117Z,36.78
2022-10-24T00:44:23.982Z,37.55
2022-10-24T00:46:51.049Z,35.85
2022-10-24T00:49:23.484Z,36.85
2022-10-24T00:51:57.501Z,40.28
2022-10-24T00:54:25.037Z,37.28
2022-10-24T00:57:05.438Z,38.15
2022-10-24T00:59:36.301Z,36.80
2022-10-24T01:02:03.804Z,37.95
2022-10-24T01:04:30.706Z,43.08
2022-10-24T01:07:39.337Z,43.85
2022-10-24T01:11:04.611Z,43.22
2022-10-24T01:14:02.699Z,41.40
2022-10-24T01:17:04.865Z,42.17
2022-10-24T01:20:22.762Z,35.78
2022-10-24T01:23:11.092Z,38.63
2022-10-24T01:26:06.375Z,37.10
2022-10-24T01:28:53.579Z,34.30
2022-10-24T01:31:38.846Z,38.10
2022-10-24T01:34:26.214Z,37.15
2022-10-24T01:37:15.017Z,34.83
2022-10-24T01:39:50.287Z,35.88
2022-10-24T01:42:23.988Z,36.63
2022-10-24T01:44:57.469Z,38.03
2022-10-24T01:47:30.769Z,34.75
2022-10-24T01:50:05.796Z,36.75
2022-10-24T01:52:40.015Z,33.50
2022-10-24T01:55:08.924Z,31.75
2022-10-24T01:57:36.167Z,28.42
2022-10-24T02:00:08.040Z,31.80
2022-10-24T02:02:43.226Z,29.70
2022-10-24T02:05:27.395Z,24.00
2022-10-24T02:08:02.749Z,27.20
2022-10-24T07:13:39.352Z,4.28
2022-10-24T07:16:07.755Z,5.53
2022-10-24T07:18:34.923Z,10.25
2022-10-24T07:21:17.874Z,7.55
2022-10-24T07:23:45.222Z,7.30
2022-10-24T07:26:16.663Z,7.07
2022-10-24T07:28:47.921Z,5.80
2022-10-24T07:31:19.267Z,5.55
2022-10-24T07:33:46.415Z,8.13
2022-10-24T07:36:23.902Z,5.55
2022-10-24T07:38:54.372Z,4.60
2022-10-24T07:41:21.925Z,5.00
2022-10-24T07:43:48.828Z,4.50
2022-10-24T07:46:40.793Z,4.68
2022-10-24T07:49:24.777Z,6.30
2022-10-24T07:51:51.759Z,3.55
2022-10-24T07:54:25.775Z,8.63
2022-10-24T07:56:54.180Z,5.95
2022-10-24T07:59:40.704Z,4.40
2022-10-24T08:02:13.935Z,5.60
2022-10-24T08:04:41.401Z,10.73
2022-10-24T08:07:13.620Z,4.97
2022-10-24T08:09:47.029Z,8.35
2022-10-24T08:12:14.657Z,6.75
2022-10-24T08:14:42.198Z,6.25
2022-10-24T08:17:10.280Z,8.27
2022-10-24T08:19:37.213Z,5.72
2022-10-24T08:22:04.498Z,5.68
2022-10-24T08:24:31.351Z,4.78
2022-10-24T08:26:59.677Z,7.82
2022-10-24T08:29:26.792Z,4.85
2022-10-24T08:31:56.840Z,8.05
2022-10-24T08:34:23.802Z,5.63
2022-10-24T08:36:51.287Z,6.75
2022-10-24T08:39:19.103Z,4.35
2022-10-24T08:42:02.272Z,10.43
2022-10-24T08:44:33.192Z,7.78
2022-10-24T08:50:33.592Z,9.00
2022-10-24T08:53:00.657Z,4.53
2022-10-24T08:55:50.499Z,5.22
2022-10-24T08:58:28.655Z,5.72
2022-10-24T09:01:01.640Z,7.22
2022-10-24T09:04:01.856Z,5.47
2022-10-24T09:06:32.412Z,9.10
2022-10-24T09:09:15.550Z,7.38
2022-10-24T09:12:07.520Z,8.20
2022-10-24T09:14:40.867Z,5.32
2022-10-24T09:17:29.521Z,6.38
2022-10-24T09:20:14.929Z,6.65
2022-10-24T09:22:44.277Z,5.60
2022-10-24T09:25:16.855Z,3.92
2022-10-24T09:27:45.169Z,4.63
2022-10-24T09:30:30.032Z,8.50
2022-10-24T09:33:14.682Z,9.00
2022-10-24T09:35:43.281Z,5.35
2022-10-24T09:38:39.802Z,5.25
2022-10-24T09:41:24.088Z,8.35
2022-10-24T09:43:58.460Z,4.45
2022-10-24T09:46:29.715Z,5.50
2022-10-24T09:49:23.470Z,7.75
2022-10-24T09:55:22.416Z,4.35
2022-10-24T09:57:54.493Z,5.88
2022-10-24T10:00:29.711Z,3.25
2022-10-24T10:03:07.250Z,5.25
2022-10-24T10:05:48.998Z,7.03
2022-10-24T10:08:27.493Z,6.72
2022-10-24T10:11:08.821Z,3.53
2022-10-24T10:13:49.877Z,4.47
2022-10-24T10:16:33.028Z,5.68
2022-10-24T10:19:15.961Z,5.82
2022-10-24T10:22:05.596Z,5.72
2022-10-24T10:24:35.504Z,4.30
2022-10-24T10:27:39.554Z,3.47
2022-10-24T10:30:09.953Z,7.45
2022-10-24T10:33:19.045Z,9.65
2022-10-24T10:36:04.503Z,6.30
2022-10-24T10:41:41.458Z,4.45
2022-10-24T10:44:20.826Z,8.55
2022-10-24T10:47:10.230Z,7.22
2022-10-24T10:49:42.566Z,6.70
2022-10-24T10:52:32.089Z,13.15
2022-10-24T10:55:36.298Z,9.10
2022-10-24T10:58:27.289Z,7.45
2022-10-24T11:01:25.858Z,9.93
2022-10-24T11:04:15.156Z,9.75
2022-10-24T11:07:36.218Z,8.80
2022-10-24T11:10:10.930Z,8.90
2022-10-24T11:12:46.301Z,9.30
2022-10-24T11:15:41.795Z,8.55
2022-10-24T11:18:38.963Z,6.20
2022-10-24T11:21:09.983Z,10.85
2022-10-24T11:24:02.096Z,10.15
2022-10-24T11:26:41.238Z,6.75
2022-10-24T11:29:40.512Z,5.47
2022-10-24T11:32:22.583Z,9.77
2022-10-24T11:35:01.870Z,10.10
2022-10-24T11:37:38.717Z,6.13
2022-10-24T11:40:23.240Z,7.35
2022-10-24T11:43:30.639Z,6.50
2022-10-24T11:46:40.005Z,6.32
2022-10-24T11:49:43.756Z,8.05
2022-10-24T11:52:29.019Z,11.18
2022-10-24T11:55:06.105Z,11.88
2022-10-24T11:57:34.604Z,9.35
2022-10-24T12:00:02.126Z,9.50
2022-10-24T12:03:08.416Z,9.43
2022-10-24T12:06:48.620Z,5.25
2022-10-24T12:09:30.792Z,4.78
2022-10-24T12:12:25.645Z,6.95
2022-10-24T12:15:24.477Z,6.38
2022-10-24T12:18:28.275Z,5.47
2022-10-24T12:21:02.472Z,5.35
2022-10-24T12:23:31.631Z,4.82
2022-10-24T12:26:05.960Z,3.33
2022-10-24T12:28:34.302Z,5.70
2022-10-24T12:31:20.939Z,3.20
2022-10-24T12:34:15.970Z,4.40
2022-10-24T12:37:18.656Z,11.98
2022-10-24T12:39:50.375Z,7.93
2022-10-24T12:42:24.103Z,8.05
2022-10-24T12:45:12.767Z,8.75
2022-10-24T12:47:44.372Z,7.95
2022-10-24T12:50:23.376Z,5.00
2022-10-24T12:52:57.714Z,5.20
2022-10-24T12:56:14.279Z,5.72
2022-10-24T13:01:59.919Z,12.00
2022-10-24T13:05:42.178Z,4.57
2022-10-24T13:09:09.136Z,5.50
2022-10-24T13:12:06.713Z,6.38
2022-10-24T13:14:53.179Z,4.25
2022-10-24T13:17:59.909Z,7.60
2022-10-24T13:20:39.739Z,4.70
2022-10-24T13:23:27.775Z,5.07
2022-10-24T13:25:58.807Z,4.47
2022-10-24T13:28:25.660Z,7.03
2022-10-24T13:30:58.745Z,3.05
2022-10-24T13:33:31.835Z,5.80
2022-10-24T13:36:17.999Z,5.15
2022-10-24T13:38:48.585Z,5.90
2022-10-24T13:41:46.669Z,7.93
2022-10-24T13:44:33.236Z,4.97
2022-10-24T13:47:04.081Z,18.63
2022-10-24T13:49:48.295Z,10.38
2022-10-24T13:52:21.199Z,12.65
2022-10-24T13:54:56.792Z,4.28
2022-10-24T13:57:37.954Z,10.18
2022-10-24T14:00:48.593Z,8.23
2022-10-24T14:03:35.466Z,6.03
2022-10-24T14:06:08.405Z,10.18
2022-10-24T14:09:15.105Z,6.75
2022-10-24T14:11:48.608Z,9.50
2022-10-24T14:14:40.102Z,7.97
2022-10-24T14:17:08.581Z,3.63
2022-10-24T14:19:39.234Z,5.80
2022-10-24T14:22:28.051Z,6.28
2022-10-24T14:24:55.912Z,7.07
2022-10-24T14:27:24.320Z,6.72
2022-10-24T14:30:00.131Z,11.25
2022-10-24T14:32:30.928Z,8.23
2022-10-24T14:37:37.297Z,12.27
2022-10-24T14:40:11.840Z,6.20
2022-10-24T14:42:39.402Z,4.25
2022-10-24T14:45:20.980Z,6.35
2022-10-24T14:47:54.792Z,8.93
2022-10-24T14:50:47.183Z,6.43
2022-10-24T14:53:28.433Z,6.00
2022-10-24T14:56:00.084Z,5.22
2022-10-24T14:58:35.870Z,6.30
2022-10-24T15:01:03.898Z,4.00
2022-10-24T15:03:30.993Z,6.68
2022-10-24T15:06:12.516Z,6.30
2022-10-24T15:11:21.891Z,7.70
2022-10-24T15:14:05.881Z,11.43
2022-10-24T15:16:38.995Z,9.18
2022-10-24T15:19:18.126Z,16.00
2022-10-24T15:21:47.280Z,10.77
2022-10-24T15:24:25.002Z,8.52
2022-10-24T15:26:53.134Z,11.68
2022-10-24T15:29:23.251Z,13.18
2022-10-24T15:31:52.185Z,8.70
2022-10-24T15:34:22.890Z,10.05
2022-10-24T15:36:53.092Z,5.78
2022-10-24T15:39:24.638Z,13.55
2022-10-24T15:41:53.377Z,5.50
2022-10-24T15:44:27.851Z,7.05
2022-10-24T15:46:55.326Z,10.88
2022-10-24T15:49:22.755Z,7.47
2022-10-24T15:51:51.264Z,7.13
2022-10-24T15:54:22.402Z,8.10
2022-10-24T15:56:50.550Z,4.00
2022-10-24T15:59:19.966Z,10.93
2022-10-24T16:01:58.346Z,106.82
2022-10-24T16:04:25.350Z,50.92
2022-10-24T16:06:53.215Z,20.95
2022-10-24T16:09:25.133Z,11.98
2022-10-24T16:11:52.201Z,29.60
2022-10-24T16:14:22.959Z,75.88
2022-10-24T16:16:50.033Z,13.45
2022-10-24T16:19:16.930Z,52.15
2022-10-24T16:21:44.238Z,12.38
2022-10-24T16:24:12.965Z,5.68
2022-10-24T16:26:40.997Z,37.83
2022-10-24T16:29:08.025Z,12.77
2022-10-24T16:31:35.676Z,11.57
2022-10-24T16:34:03.187Z,16.02
2022-10-24T16:36:30.261Z,18.83
2022-10-24T16:38:57.063Z,7.75
2022-10-24T16:41:26.282Z,5.40
2022-10-24T16:43:57.859Z,5.85
2022-10-24T16:46:27.725Z,5.25
2022-10-24T16:48:56.355Z,4.55
2022-10-24T16:51:32.259Z,12.98
2022-10-24T16:54:02.023Z,5.95
2022-10-24T16:56:30.179Z,5.18
2022-10-24T16:58:57.551Z,7.35
2022-10-24T17:01:27.192Z,5.20
2022-10-24T17:03:54.306Z,3.35
2022-10-24T17:06:21.282Z,4.93
2022-10-24T17:08:48.396Z,6.05
2022-10-24T17:11:39.897Z,5.10
2022-10-24T17:14:02.626Z,4.45
2022-10-24T17:16:29.718Z,5.70
2022-10-24T17:19:12.322Z,4.68
2022-10-24T17:21:42.862Z,7.10
2022-10-24T17:24:12.480Z,5.93
2022-10-24T17:26:41.491Z,7.55
2022-10-24T17:29:13.842Z,17.60
2022-10-24T17:31:40.976Z,12.85
2022-10-24T17:34:10.223Z,17.70
2022-10-24T17:36:39.193Z,22.00
2022-10-24T17:39:20.685Z,11.32
2022-10-24T17:41:48.132Z,6.55
2022-10-24T17:44:18.080Z,10.10
2022-10-24T17:46:47.339Z,7.50
2022-10-24T17:49:20.771Z,8.32
2022-10-24T17:51:49.310Z,7.15
2022-10-24T17:54:16.884Z,6.88
2022-10-24T17:56:44.161Z,6.32
2022-10-24T17:59:11.162Z,6.72
2022-10-24T18:01:39.014Z,5.90
2022-10-24T18:04:06.407Z,16.38
2022-10-24T18:06:34.684Z,7.75
2022-10-24T18:09:02.609Z,8.77
2022-10-24T18:11:30.536Z,6.28
2022-10-24T18:13:57.904Z,9.27
2022-10-24T18:16:27.403Z,16.95
2022-10-24T18:18:57.056Z,8.38
2022-10-24T18:21:25.761Z,7.50
2022-10-24T18:23:54.089Z,11.23
2022-10-24T18:26:25.749Z,10.15
2022-10-24T18:28:55.723Z,9.85
2022-10-24T18:31:28.719Z,8.55
2022-10-24T18:33:59.244Z,8.48
2022-10-24T18:36:30.487Z,8.23
2022-10-24T18:39:01.757Z,8.40
2022-10-24T18:41:54.817Z,6.95
2022-10-24T18:44:25.241Z,10.13
2022-10-24T18:46:56.599Z,7.70
2022-10-24T18:49:24.472Z,7.65
2022-10-24T18:52:14.802Z,7.95
2022-10-24T18:55:04.577Z,4.72
2022-10-24T18:57:34.560Z,5.35
2022-10-24T19:00:01.572Z,5.25
2022-10-24T19:02:55.550Z,4.65
2022-10-24T19:06:24.288Z,6.70
2022-10-24T19:08:51.953Z,5.70
2022-10-24T19:11:19.246Z,7.10
2022-10-24T19:13:46.666Z,7.07
2022-10-24T19:16:28.588Z,5.25
2022-10-24T19:19:01.395Z,8.38
2022-10-24T19:21:29.003Z,5.35
2022-10-24T19:23:56.131Z,11.43
2022-10-24T19:26:23.007Z,4.75
2022-10-24T19:28:50.559Z,5.88
2022-10-24T19:31:17.549Z,4.32
2022-10-24T19:33:44.899Z,7.55
2022-10-24T19:36:15.574Z,5.82
2022-10-24T19:38:45.574Z,5.03
2022-10-24T19:41:12.792Z,3.88
2022-10-24T19:43:40.109Z,5.10
2022-10-24T19:46:19.280Z,6.03
2022-10-24T19:48:49.489Z,5.28
2022-10-24T19:51:18.926Z,4.80
2022-10-24T19:53:47.446Z,5.82
2022-10-24T19:56:20.168Z,6.10
2022-10-24T19:58:49.847Z,3.42
2022-10-24T20:01:20.739Z,8.18
2022-10-24T20:03:49.919Z,9.90
2022-10-24T20:06:18.215Z,6.15
2022-10-24T20:08:49.794Z,10.35
2022-10-24T20:11:17.526Z,6.50
2022-10-24T20:13:44.513Z,7.47
2022-10-24T20:16:11.626Z,4.80
2022-10-24T20:21:17.807Z,3.92
2022-10-24T20:23:49.174Z,4.93
2022-10-24T20:26:26.027Z,5.47
2022-10-24T20:28:55.947Z,7.45
2022-10-24T20:31:30.040Z,6.50
2022-10-24T20:34:05.183Z,5.68
2022-10-24T20:36:37.913Z,4.13
2022-10-24T20:39:08.855Z,5.13
2022-10-24T20:41:37.314Z,10.20
2022-10-24T20:44:07.099Z,5.38
2022-10-24T20:46:34.690Z,4.85
2022-10-24T20:49:02.551Z,5.20
2022-10-24T20:51:29.590Z,5.50
2022-10-24T20:53:57.645Z,4.28
2022-10-24T20:56:28.648Z,4.43
2022-10-24T20:58:56.617Z,5.43
2022-10-24T21:01:27.711Z,5.32
2022-10-24T21:03:57.252Z,3.03
2022-10-24T21:06:29.055Z,6.78
2022-10-24T21:09:00.147Z,3.47
2022-10-24T21:11:30.306Z,4.40
2022-10-24T21:14:05.869Z,3.75
2022-10-24T21:19:05.067Z,3.53
2022-10-24T21:21:32.341Z,4.10
2022-10-24T21:24:06.920Z,2.35
2022-10-24T21:26:40.112Z,3.33
2022-10-24T21:29:31.745Z,2.30
2022-10-24T21:31:57.059Z,5.78
2022-10-24T21:34:26.735Z,2.70
2022-10-24T21:36:57.406Z,2.78
2022-10-24T21:39:27.310Z,3.78
2022-10-24T21:41:55.568Z,5.15
2022-10-24T21:44:25.669Z,2.42
2022-10-24T21:46:54.426Z,2.60
2022-10-24T21:49:22.022Z,2.70
2022-10-24T21:51:49.493Z,4.22
2022-10-24T21:54:24.352Z,4.20
2022-10-24T21:56:51.754Z,4.70
2022-10-24T21:59:21.105Z,3.75
2022-10-24T22:01:51.231Z,2.90
2022-10-24T22:04:19.157Z,2.63
2022-10-24T22:06:46.586Z,3.83
2022-10-24T22:09:19.600Z,2.80
2022-10-24T22:11:47.108Z,6.45
2022-10-24T22:14:17.317Z,3.45
2022-10-24T22:16:44.542Z,3.80
2022-10-24T22:19:13.179Z,3.17
2022-10-24T22:21:44.567Z,2.15
2022-10-24T22:24:22.303Z,2.35
2022-10-24T22:26:51.231Z,2.13
2022-10-24T22:29:22.898Z,2.38
2022-10-24T22:31:52.102Z,1.65
2022-10-24T22:34:25.416Z,1.80
2022-10-24T22:37:27.428Z,1.63
2022-10-24T22:39:54.927Z,1.75
2022-10-24T22:42:22.149Z,2.35
2022-10-24T22:44:50.973Z,2.88
2022-10-24T22:47:38.962Z,4.00
2022-10-24T22:50:46.814Z,2.88
2022-10-24T22:53:17.578Z,2.35
2022-10-24T22:56:14.991Z,3.05
2022-10-24T22:58:45.318Z,1.85
2022-10-24T23:01:40.410Z,2.90
2022-10-24T23:04:26.114Z,4.47
2022-10-24T23:06:58.175Z,3.78
2022-10-24T23:09:25.021Z,2.60
2022-10-24T23:11:52.729Z,5.68
2022-10-24T23:14:20.095Z,2.45
2022-10-24T23:16:58.876Z,5.43
2022-10-24T23:19:29.769Z,2.50
2022-10-24T23:22:03.476Z,3.47
2022-10-24T23:24:30.550Z,2.17
2022-10-24T23:27:12.605Z,2.58
2022-10-24T23:29:43.490Z,3.65
2022-10-24T23:32:30.237Z,2.90
2022-10-24T23:34:59.298Z,2.08
2022-10-24T23:37:43.352Z,2.53
2022-10-24T23:40:37.018Z,1.52
2022-10-24T23:43:05.090Z,1.88
2022-10-24T23:45:48.861Z,1.73
2022-10-24T23:48:35.086Z,3.85
2022-10-24T23:51:37.133Z,2.17
2022-10-24T23:54:09.891Z,4.10
2022-10-24T23:56:37.324Z,2.13
2022-10-24T23:59:05.409Z,1.75
